createdAt,value
2022-09-06T00:02:27.565Z,1.05
2022-09-06T00:05:27.435Z,1.15
2022-09-06T00:08:27.671Z,1.55
2022-09-06T00:11:27.454Z,0.85
2022-09-06T00:14:27.462Z,1.4
2022-09-06T00:17:27.461Z,0.75
2022-09-06T00:20:27.466Z,1.15
2022-09-06T00:23:27.477Z,1.15
2022-09-06T00:26:27.439Z,1.05
2022-09-06T00:29:27.487Z,1.45
2022-09-06T00:32:27.471Z,1.8
2022-09-06T00:35:27.456Z,1.4
2022-09-06T00:38:27.862Z,1
2022-09-06T00:41:27.447Z,1.25
2022-09-06T00:44:27.479Z,2.1
2022-09-06T00:47:27.465Z,1.2
2022-09-06T00:50:27.470Z,1.35
2022-09-06T00:53:27.485Z,1.2
2022-09-06T00:56:27.499Z,1.25
2022-09-06T00:59:27.477Z,0.95
2022-09-06T01:02:27.662Z,1
2022-09-06T01:05:27.515Z,1.15
2022-09-06T01:08:27.766Z,0.95
2022-09-06T01:11:27.507Z,0.65
2022-09-06T01:14:27.527Z,1.1
2022-09-06T01:17:27.517Z,0.65
2022-09-06T01:20:27.521Z,0.95
2022-09-06T01:23:27.510Z,0.55
2022-09-06T01:26:27.505Z,0.65
2022-09-06T01:29:27.506Z,0.8
2022-09-06T01:32:27.506Z,0.7
2022-09-06T01:35:27.523Z,0.7
2022-09-06T01:38:27.777Z,0.45
2022-09-06T01:41:27.501Z,0.45
2022-09-06T01:44:27.490Z,0.55
2022-09-06T01:47:27.503Z,0.35
2022-09-06T01:50:27.547Z,0.4
2022-09-06T01:53:27.563Z,0.65
2022-09-06T01:56:27.560Z,0.75
2022-09-06T01:59:27.535Z,0.75
2022-09-06T02:02:27.650Z,0.75
2022-09-06T02:05:27.575Z,0.75
2022-09-06T02:08:27.828Z,1
2022-09-06T02:11:27.542Z,1
2022-09-06T02:14:27.566Z,0.85
2022-09-06T02:17:27.556Z,0.7
2022-09-06T02:20:27.531Z,0.25
2022-09-06T02:23:27.566Z,0.35
2022-09-06T02:26:27.568Z,0.75
2022-09-06T02:29:27.605Z,1.1
2022-09-06T02:32:27.545Z,0.5
2022-09-06T02:35:27.592Z,0.8
2022-09-06T02:38:27.750Z,1.1
2022-09-06T02:41:27.569Z,1.25
2022-09-06T02:44:27.603Z,1.25
2022-09-06T02:47:27.607Z,0.8
2022-09-06T02:50:27.583Z,1.35
2022-09-06T02:53:27.607Z,0.8
2022-09-06T02:56:27.601Z,0.8
2022-09-06T02:59:27.581Z,0.85
2022-09-06T03:02:27.766Z,1.15
2022-09-06T03:05:27.627Z,1
2022-09-06T03:08:27.761Z,0.9
2022-09-06T03:11:27.670Z,0.75
2022-09-06T03:14:27.581Z,1.45
2022-09-06T03:17:27.625Z,0.65
2022-09-06T03:20:27.631Z,0.55
2022-09-06T03:23:27.597Z,0.8
2022-09-06T03:26:27.623Z,0.7
2022-09-06T03:29:27.640Z,0.65
2022-09-06T03:32:27.610Z,0.85
2022-09-06T03:35:27.616Z,1.05
2022-09-06T03:38:27.766Z,0.45
2022-09-06T03:41:27.597Z,0.8
2022-09-06T03:44:27.618Z,0.45
2022-09-06T03:47:27.625Z,2.3
2022-09-06T03:50:27.630Z,2.8
2022-09-06T03:53:27.640Z,1.85
2022-09-06T03:56:27.677Z,0.9
2022-09-06T03:59:27.667Z,0.95
2022-09-06T04:02:27.717Z,1.2
2022-09-06T04:05:27.666Z,0.5
2022-09-06T04:08:27.842Z,0.25
2022-09-06T04:11:27.716Z,0.4
2022-09-06T04:14:27.627Z,0.55
2022-09-06T04:17:27.672Z,0.5
2022-09-06T04:20:27.653Z,1.05
2022-09-06T04:23:27.727Z,0.45
2022-09-06T04:26:27.680Z,0.45
2022-09-06T04:29:27.705Z,0.7
2022-09-06T04:32:27.661Z,1
2022-09-06T04:35:27.704Z,0.95
2022-09-06T04:38:27.777Z,0.9
2022-09-06T04:41:27.705Z,0.55
2022-09-06T04:44:27.691Z,0.4
2022-09-06T04:47:27.656Z,0.15
2022-09-06T04:50:27.677Z,0.2
2022-09-06T04:53:27.718Z,0.4
2022-09-06T04:56:27.700Z,0.35
2022-09-06T04:59:27.681Z,0.3
2022-09-06T05:02:27.790Z,0.4
2022-09-06T05:05:27.674Z,0.5
2022-09-06T05:08:27.788Z,0.3
2022-09-06T05:11:27.682Z,0.25
2022-09-06T05:14:27.729Z,0.55
2022-09-06T05:17:27.755Z,0.5
2022-09-06T05:20:27.791Z,0.5
2022-09-06T05:23:27.763Z,0.1
2022-09-06T05:26:27.744Z,0.5
2022-09-06T05:29:31.567Z,0
2022-09-06T05:32:27.763Z,0
2022-09-06T05:35:27.751Z,0
2022-09-06T05:38:30.835Z,0.1
2022-09-06T05:41:27.783Z,0.45
2022-09-06T05:44:27.727Z,0.5
2022-09-06T05:47:27.782Z,0.45
2022-09-06T05:50:27.783Z,0.75
2022-09-06T05:53:27.761Z,0.75
2022-09-06T05:56:27.751Z,0.9
2022-09-06T05:59:27.771Z,0.45
2022-09-06T06:02:27.831Z,0.35
2022-09-06T06:05:27.777Z,0.75
2022-09-06T06:08:28.010Z,1
2022-09-06T06:11:27.790Z,1.05
2022-09-06T06:14:27.761Z,0.75
2022-09-06T06:17:27.762Z,0.5
2022-09-06T06:20:27.791Z,0.8
2022-09-06T06:23:27.803Z,0.95
2022-09-06T06:26:27.761Z,1.05
2022-09-06T06:29:27.764Z,0.85
2022-09-06T06:32:27.776Z,1.6
2022-09-06T06:35:27.741Z,0.6
2022-09-06T06:38:27.888Z,1.5
2022-09-06T06:41:27.814Z,1.6
2022-09-06T06:44:27.808Z,1.05
2022-09-06T06:47:27.790Z,1.35
2022-09-06T06:50:27.832Z,1.85
2022-09-06T06:53:27.847Z,1.35
2022-09-06T06:56:27.822Z,1.4
2022-09-06T06:59:27.837Z,1.5
2022-09-06T07:02:27.920Z,1.1
2022-09-06T07:08:28.039Z,2.8
2022-09-06T07:11:27.857Z,2.25
2022-09-06T07:14:27.832Z,2.9
2022-09-06T07:17:27.847Z,2.3
2022-09-06T07:20:27.993Z,2.6
2022-09-06T07:26:27.851Z,2.8
2022-09-06T07:29:27.826Z,2.25
2022-09-06T07:32:27.852Z,2.4
2022-09-06T07:35:27.847Z,2.4
2022-09-06T07:38:27.889Z,2.8
2022-09-06T07:41:27.869Z,3.3
2022-09-06T07:44:27.941Z,3.2
2022-09-06T07:50:48.779Z,2.95
2022-09-06T07:53:32.483Z,2.55
2022-09-06T07:56:27.874Z,2.55
2022-09-06T07:59:27.853Z,2.7
2022-09-06T08:02:28.032Z,2.5
2022-09-06T08:11:27.887Z,3.05
2022-09-06T08:14:27.904Z,2.35
2022-09-06T08:17:27.872Z,2.1
2022-09-06T08:20:27.919Z,2.3
2022-09-06T08:23:28.063Z,2.75
2022-09-06T08:26:27.906Z,2.1
2022-09-06T08:29:27.955Z,3.1
2022-09-06T08:32:27.939Z,2.05
2022-09-06T08:35:27.944Z,2.85
2022-09-06T08:38:27.896Z,2.15
2022-09-06T08:41:27.947Z,2.15
2022-09-06T08:47:27.927Z,1.65
2022-09-06T08:50:27.913Z,1.6
2022-09-06T08:53:27.909Z,2.5
2022-09-06T08:56:27.912Z,1.9
2022-09-06T08:59:27.947Z,1.85
2022-09-06T09:02:28.020Z,1.8
2022-09-06T09:05:27.943Z,1.35
2022-09-06T09:08:28.170Z,1.95
2022-09-06T09:11:27.940Z,1.5
2022-09-06T09:14:27.933Z,1.4
2022-09-06T09:17:27.946Z,2
2022-09-06T09:20:27.941Z,1.25
2022-09-06T09:23:27.943Z,1.05
2022-09-06T09:26:27.963Z,1.45
2022-09-06T09:29:35.752Z,1.35
2022-09-06T09:32:28.111Z,1.55
2022-09-06T09:35:27.954Z,1.35
2022-09-06T09:38:28.047Z,2.35
2022-09-06T09:41:27.927Z,1.45
2022-09-06T09:44:27.963Z,1
2022-09-06T09:47:27.944Z,1.2
2022-09-06T09:50:28.147Z,0.25
2022-09-06T09:53:27.957Z,1.55
2022-09-06T09:56:27.959Z,0.7
2022-09-06T09:59:27.933Z,0.85
2022-09-06T10:02:27.959Z,0.85
2022-09-06T10:05:27.979Z,0.7
2022-09-06T10:08:28.193Z,0.9
2022-09-06T10:11:28.012Z,0.9
2022-09-06T10:14:27.957Z,0.35
2022-09-06T10:17:28.030Z,0.7
2022-09-06T10:20:28.018Z,1
2022-09-06T10:26:27.999Z,0.45
2022-09-06T10:29:27.979Z,0.75
2022-09-06T10:32:31.888Z,0.6
2022-09-06T10:35:28.007Z,1.25
2022-09-06T10:38:28.126Z,0.85
2022-09-06T10:41:28.033Z,1.4
2022-09-06T10:44:27.994Z,1.3
2022-09-06T10:47:28.052Z,1.15
2022-09-06T10:50:28.027Z,1.5
2022-09-06T10:53:28.017Z,1.25
2022-09-06T10:56:28.083Z,0.95
2022-09-06T11:02:28.475Z,0.9
2022-09-06T11:05:40.183Z,1.45
2022-09-06T11:08:48.376Z,1.6
2022-09-06T11:11:27.999Z,1.65
2022-09-06T11:14:28.043Z,1.1
2022-09-06T11:17:28.148Z,1.45
2022-09-06T11:20:32.902Z,1.4
2022-09-06T11:23:28.113Z,1.7
2022-09-06T11:26:28.066Z,1.65
2022-09-06T11:29:28.047Z,1.25
2022-09-06T11:32:28.063Z,1.25
2022-09-06T11:35:28.068Z,1.5
2022-09-06T11:38:28.091Z,1.7
2022-09-06T11:41:28.127Z,1.75
2022-09-06T11:44:28.094Z,0.85
2022-09-06T11:47:28.111Z,1
2022-09-06T11:50:28.109Z,1.4
2022-09-06T11:53:28.341Z,1.5
2022-09-06T11:56:28.098Z,1.4
2022-09-06T11:59:28.110Z,1.75
2022-09-06T12:02:28.284Z,1.65
2022-09-06T12:05:28.081Z,1.75
2022-09-06T12:08:28.259Z,1.7
2022-09-06T12:11:31.426Z,1.4
2022-09-06T12:14:28.079Z,1.15
2022-09-06T12:17:28.111Z,0.9
2022-09-06T12:20:28.181Z,1.4
2022-09-06T12:23:28.082Z,0.7
2022-09-06T12:26:28.113Z,0.8
2022-09-06T12:29:28.099Z,1.1
2022-09-06T12:32:28.139Z,0.65
2022-09-06T12:38:28.298Z,1
2022-09-06T12:41:28.132Z,0.65
2022-09-06T12:44:28.137Z,1.55
2022-09-06T12:47:28.089Z,1.15
2022-09-06T12:50:28.189Z,1.05
2022-09-06T12:53:28.263Z,1.15
2022-09-06T12:56:28.147Z,1.45
2022-09-06T12:59:28.158Z,0.95
2022-09-06T13:02:28.354Z,1.5
2022-09-06T13:05:28.129Z,1.1
2022-09-06T13:08:28.187Z,1.2
2022-09-06T13:11:28.137Z,1.05
2022-09-06T13:14:28.771Z,0.95
2022-09-06T13:17:28.173Z,1.25
2022-09-06T13:20:28.153Z,1.15
2022-09-06T13:23:28.348Z,1.05
2022-09-06T13:26:28.149Z,1
2022-09-06T13:29:28.190Z,1.05
2022-09-06T13:32:28.144Z,0.75
2022-09-06T13:35:28.197Z,1
2022-09-06T13:38:28.195Z,0.9
2022-09-06T13:41:28.198Z,0.95
2022-09-06T13:44:28.233Z,0.45
2022-09-06T13:47:28.197Z,0.8
2022-09-06T13:50:28.902Z,0.3
2022-09-06T13:53:28.232Z,0.4
2022-09-06T13:56:28.217Z,0.55
2022-09-06T13:59:28.248Z,0.55
2022-09-06T14:02:28.322Z,0.5
2022-09-06T14:05:28.262Z,0.65
2022-09-06T14:08:49.518Z,0.45
2022-09-06T14:11:28.242Z,0.45
2022-09-06T14:14:28.323Z,0.45
2022-09-06T14:17:28.313Z,0.8
2022-09-06T14:20:28.224Z,0.8
2022-09-06T14:23:28.309Z,0.8
2022-09-06T14:26:28.232Z,0.4
2022-09-06T14:29:28.268Z,0.95
2022-09-06T14:32:28.327Z,0.4
2022-09-06T14:35:28.234Z,0.6
2022-09-06T14:38:28.425Z,0.35
2022-09-06T14:41:31.304Z,0.2
2022-09-06T14:44:28.262Z,0.45
2022-09-06T14:47:28.244Z,0.65
2022-09-06T14:50:28.254Z,0.75
2022-09-06T14:53:40.037Z,0.6
2022-09-06T14:56:28.259Z,0.35
2022-09-06T14:59:28.265Z,0.3
2022-09-06T15:02:28.331Z,0.6
2022-09-06T15:05:28.268Z,0.6
2022-09-06T15:08:28.313Z,0.65
2022-09-06T15:11:28.243Z,0.25
2022-09-06T15:14:28.455Z,0.25
2022-09-06T15:17:28.330Z,0.35
2022-09-06T15:20:28.308Z,0.2
2022-09-06T15:23:28.297Z,0.45
2022-09-06T15:26:28.292Z,0.5
2022-09-06T15:29:28.310Z,0.5
2022-09-06T15:32:28.310Z,0.25
2022-09-06T15:35:28.350Z,0.25
2022-09-06T15:38:28.270Z,0.1
2022-09-06T15:41:28.313Z,0.2
2022-09-06T15:44:28.273Z,0.7
2022-09-06T15:47:28.284Z,0.65
2022-09-06T15:50:50.157Z,0.3
2022-09-06T15:53:28.471Z,0.1
2022-09-06T15:56:28.317Z,0.35
2022-09-06T15:59:28.343Z,0.75
2022-09-06T16:02:28.388Z,0.15
2022-09-06T16:08:28.405Z,0.3
2022-09-06T16:11:28.300Z,0.45
2022-09-06T16:14:28.304Z,0.3
2022-09-06T16:17:28.387Z,0.3
2022-09-06T16:20:33.460Z,0.15
2022-09-06T16:23:28.354Z,0.55
2022-09-06T16:26:28.329Z,0.3
2022-09-06T16:29:28.355Z,0.3
2022-09-06T16:32:28.347Z,0.45
2022-09-06T16:35:28.368Z,0.1
2022-09-06T16:38:28.435Z,0.4
2022-09-06T16:41:28.340Z,0.7
2022-09-06T16:44:28.394Z,0.5
2022-09-06T16:47:28.330Z,0.25
2022-09-06T16:50:28.359Z,0
2022-09-06T16:53:28.353Z,0.15
2022-09-06T16:56:28.352Z,0.25
2022-09-06T16:59:30.841Z,0.2
2022-09-06T17:02:28.525Z,0.25
2022-09-06T17:05:28.348Z,0.1
2022-09-06T17:08:29.333Z,0.2
2022-09-06T17:11:28.448Z,0.2
2022-09-06T17:14:28.378Z,0.25
2022-09-06T17:17:28.399Z,0.1
2022-09-06T17:20:28.403Z,0.35
2022-09-06T17:23:28.542Z,0.35
2022-09-06T17:26:28.371Z,0.25
2022-09-06T17:29:28.477Z,0.15
2022-09-06T17:32:28.373Z,0.35
2022-09-06T17:35:28.439Z,0.3
2022-09-06T17:38:28.683Z,0.3
2022-09-06T17:41:28.455Z,0.15
2022-09-06T17:44:28.428Z,0.3
2022-09-06T17:47:28.378Z,0.3
2022-09-06T17:50:28.443Z,0.3
2022-09-06T17:53:28.375Z,0.2
2022-09-06T17:56:28.456Z,0.25
2022-09-06T17:59:35.615Z,0.2
2022-09-06T18:02:28.438Z,0.25
2022-09-06T18:05:28.539Z,0.25
2022-09-06T18:08:28.561Z,0.25
2022-09-06T18:11:28.478Z,0.3
2022-09-06T18:14:28.405Z,0.3
2022-09-06T18:17:28.425Z,0.3
2022-09-06T18:20:28.405Z,0.45
2022-09-06T18:23:28.479Z,0.5
2022-09-06T18:26:28.499Z,0.55
2022-09-06T18:29:28.468Z,0.45
2022-09-06T18:32:28.459Z,0.5
2022-09-06T18:35:28.470Z,0.7
2022-09-06T18:38:28.548Z,0.7
2022-09-06T18:41:28.508Z,0.85
2022-09-06T18:44:32.874Z,0.75
2022-09-06T18:47:28.474Z,0.95
2022-09-06T18:50:28.445Z,0.4
2022-09-06T18:53:28.626Z,0.6
2022-09-06T18:56:28.495Z,0.5
2022-09-06T18:59:28.508Z,0.45
2022-09-06T19:02:28.672Z,0.85
2022-09-06T19:05:28.442Z,1.15
2022-09-06T19:08:28.613Z,1.1
2022-09-06T19:11:28.468Z,1.2
2022-09-06T19:14:28.479Z,0.95
2022-09-06T19:17:28.493Z,0.7
2022-09-06T19:20:28.488Z,0.75
2022-09-06T19:23:28.514Z,0.75
2022-09-06T19:26:28.498Z,0.9
2022-09-06T19:29:28.514Z,1.15
2022-09-06T19:32:28.525Z,0.9
2022-09-06T19:35:28.553Z,1.25
2022-09-06T19:38:42.051Z,1.15
2022-09-06T19:41:28.514Z,1.25
2022-09-06T19:44:28.509Z,1.35
2022-09-06T19:47:28.514Z,1.45
2022-09-06T19:50:28.556Z,1.4
2022-09-06T19:53:28.558Z,0.75
2022-09-06T19:56:29.819Z,0.8
2022-09-06T19:59:28.560Z,1.2
2022-09-06T20:02:28.648Z,0.7
2022-09-06T20:05:28.603Z,0.85
2022-09-06T20:08:28.644Z,0.95
2022-09-06T20:11:28.618Z,1
2022-09-06T20:14:28.598Z,0.95
2022-09-06T20:17:34.422Z,1
2022-09-06T20:20:28.565Z,1.7
2022-09-06T20:23:28.669Z,1.1
2022-09-06T20:26:28.701Z,1.55
2022-09-06T20:29:28.583Z,1.2
2022-09-06T20:32:28.534Z,2.1
2022-09-06T20:35:28.573Z,1.25
2022-09-06T20:38:28.563Z,0.65
2022-09-06T20:41:28.529Z,1
2022-09-06T20:44:28.611Z,0.9
2022-09-06T20:47:28.599Z,0.5
2022-09-06T20:50:28.606Z,0.95
2022-09-06T20:53:28.549Z,1.15
2022-09-06T20:56:28.640Z,0.75
2022-09-06T20:59:28.570Z,0.9
2022-09-06T21:02:28.643Z,1.65
2022-09-06T21:05:28.596Z,0.95
2022-09-06T21:08:34.478Z,1.15
2022-09-06T21:11:28.633Z,1.55
2022-09-06T21:14:28.589Z,0.95
2022-09-06T21:17:28.614Z,1.5
2022-09-06T21:20:28.710Z,1.4
2022-09-06T21:23:28.616Z,1.6
2022-09-06T21:26:28.593Z,1.6
2022-09-06T21:29:28.634Z,1.15
2022-09-06T21:32:28.594Z,1.7
2022-09-06T21:35:28.585Z,1.05
2022-09-06T21:38:28.645Z,0.5
2022-09-06T21:41:28.616Z,1
2022-09-06T21:44:28.574Z,0.6
2022-09-06T21:47:28.615Z,0.85
2022-09-06T21:50:28.600Z,0.6
2022-09-06T21:53:28.582Z,0.45
2022-09-06T21:56:28.620Z,0.55
2022-09-06T21:59:28.618Z,0.35
2022-09-06T22:02:28.758Z,0.25
2022-09-06T22:05:28.589Z,0.15
2022-09-06T22:08:28.727Z,0.45
2022-09-06T22:11:28.630Z,0.2
2022-09-06T22:14:28.649Z,0.15
2022-09-06T22:17:28.630Z,0.3
2022-09-06T22:20:28.700Z,0.15
2022-09-06T22:23:28.626Z,0.25
2022-09-06T22:26:28.669Z,0.1
2022-09-06T22:29:28.690Z,0.15
2022-09-06T22:32:28.671Z,0.25
2022-09-06T22:35:28.651Z,0.25
2022-09-06T22:38:28.991Z,0.3
2022-09-06T22:41:28.655Z,0
2022-09-06T22:44:28.655Z,0
2022-09-06T22:47:28.706Z,0
2022-09-06T22:50:28.676Z,0.45
2022-09-06T22:53:28.642Z,0.35
2022-09-06T22:56:28.699Z,0.25
2022-09-06T22:59:28.694Z,0.05
2022-09-06T23:02:28.705Z,0.2
2022-09-06T23:05:28.690Z,0.2
2022-09-06T23:08:28.829Z,0.35
2022-09-06T23:11:28.696Z,0.45
2022-09-06T23:14:28.707Z,0.5
2022-09-06T23:17:28.700Z,0.65
2022-09-06T23:20:28.701Z,0.4
2022-09-06T23:23:28.700Z,0.65
2022-09-06T23:26:28.692Z,0.4
2022-09-06T23:29:28.686Z,0.25
2022-09-06T23:32:28.695Z,0.35
2022-09-06T23:35:28.744Z,0.35
2022-09-06T23:38:28.801Z,0.95
2022-09-06T23:41:28.735Z,0.1
2022-09-06T23:44:28.705Z,0.35
2022-09-06T23:47:28.752Z,0.3
2022-09-06T23:50:28.738Z,0.95
2022-09-06T23:53:34.694Z,1.1
2022-09-06T23:56:28.720Z,1.35
2022-09-06T23:59:28.735Z,1
